Time;durP1;ratioP1;P1;durP2;ratioP2;P2;SDS_P1;SDS_P2;PMS_P1;PMS_P2;Temp;Humidity;BMP_temperature;BMP_pressure;BME280_temperature;BME280_humidity;BME280_pressure;Samples;Min_cycle;Max_cycle;Signal;HPM_P1;HPM_P2
2024/03/15 00:00:00;;;;;;;1.63;1.02;;;16.20;69.10;;;;;;5085197;28;20394;-63
2024/03/15 00:02:26;;;;;;;1.30;1.10;;;16.20;69.20;;;;;;5077931;28;20032;-63
2024/03/15 00:04:53;;;;;;;2.28;1.58;;;16.20;69.30;;;;;;5088496;28;20028;-63
2024/03/15 00:07:20;;;;;;;1.80;0.93;;;16.20;69.30;;;;;;5086730;28;20031;-63
2024/03/15 00:09:48;;;;;;;1.00;0.95;;;16.20;70.00;;;;;;5084101;28;20028;-63
2024/03/15 00:12:17;;;;;;;2.10;1.10;;;16.10;69.30;;;;;;5082821;28;20038;-63
2024/03/15 00:14:43;;;;;;;1.73;1.23;;;16.10;69.40;;;;;;5083762;28;20036;-63
2024/03/15 00:17:10;;;;;;;0.88;0.85;;;16.10;69.50;;;;;;5090405;28;20028;-63
2024/03/15 00:19:35;;;;;;;1.77;0.98;;;16.10;69.60;;;;;;5091323;28;20028;-63
2024/03/15 00:22:01;;;;;;;4.90;1.05;;;16.00;69.70;;;;;;5091246;28;20423;-63
2024/03/15 00:24:27;;;;;;;3.42;1.75;;;16.00;69.80;;;;;;5091802;28;20031;-63
2024/03/15 00:26:53;;;;;;;0.85;0.80;;;16.00;69.80;;;;;;5089259;28;20032;-63
2024/03/15 00:29:19;;;;;;;1.60;1.25;;;16.10;69.80;;;;;;5091214;28;20348;-63
2024/03/15 00:31:46;;;;;;;3.08;1.27;;;16.00;69.80;;;;;;5083459;28;20020;-63
2024/03/15 00:34:12;;;;;;;2.50;1.38;;;16.00;69.90;;;;;;5086958;28;20032;-63
2024/03/15 00:36:37;;;;;;;1.67;1.00;;;16.00;70.00;;;;;;5090553;28;20074;-63
2024/03/15 00:39:05;;;;;;;2.15;1.08;;;16.00;70.10;;;;;;5081064;28;20066;-63
2024/03/15 00:41:32;;;;;;;1.63;0.90;;;16.00;70.20;;;;;;5078724;28;20485;-63
2024/03/15 00:44:01;;;;;;;5.03;1.83;;;15.90;70.20;;;;;;5080895;28;20060;-63
2024/03/15 00:46:26;;;;;;;3.45;2.08;;;15.90;70.20;;;;;;5084319;28;20024;-63
2024/03/15 00:48:53;;;;;;;2.28;1.23;;;15.90;70.40;;;;;;5083604;28;20389;-63
2024/03/15 00:51:19;;;;;;;2.78;1.00;;;15.90;70.50;;;;;;5089313;28;20387;-63
2024/03/15 00:53:45;;;;;;;0.65;0.63;;;15.90;70.60;;;;;;5081931;28;20450;-63
2024/03/15 00:56:11;;;;;;;2.80;1.73;;;15.90;70.60;;;;;;5086015;28;20460;-63
2024/03/15 00:58:38;;;;;;;2.05;0.98;;;15.90;70.70;;;;;;5084231;28;20032;-63
2024/03/15 01:01:05;;;;;;;2.17;1.65;;;15.90;70.70;;;;;;5080000;28;20051;-63
2024/03/15 01:03:34;;;;;;;1.10;1.00;;;15.80;70.80;;;;;;5083819;28;20055;-63
2024/03/15 01:06:00;;;;;;;1.40;1.30;;;15.90;70.90;;;;;;5081647;28;20019;-63
2024/03/15 01:08:26;;;;;;;3.15;1.40;;;15.90;70.90;;;;;;5080520;28;20390;-63
2024/03/15 01:10:52;;;;;;;1.77;1.20;;;15.90;70.90;;;;;;5077609;28;20073;-63
2024/03/15 01:13:19;;;;;;;1.83;1.10;;;15.90;70.80;;;;;;5089647;28;20036;-63
2024/03/15 01:15:45;;;;;;;1.90;1.15;;;15.90;70.80;;;;;;5081820;28;20555;-63
2024/03/15 01:18:12;;;;;;;1.63;1.20;;;15.90;70.90;;;;;;5078017;28;20052;-63
2024/03/15 01:20:39;;;;;;;1.13;0.75;;;15.80;70.90;;;;;;5088278;28;20500;-63
2024/03/15 01:23:08;;;;;;;1.30;1.13;;;15.80;71.10;;;;;;5084419;28;20040;-63
2024/03/15 01:25:34;;;;;;;1.00;0.90;;;15.80;71.20;;;;;;5084319;28;20093;-63
2024/03/15 01:28:02;;;;;;;1.85;1.05;;;15.80;71.20;;;;;;5084370;28;20040;-63
2024/03/15 01:30:30;;;;;;;1.52;1.20;;;15.80;71.20;;;;;;5086127;28;20028;-63
2024/03/15 01:32:56;;;;;;;1.83;1.00;;;15.80;71.30;;;;;;5069482;28;20028;-64
2024/03/15 01:35:22;;;;;;;1.88;1.30;;;15.80;71.30;;;;;;5087176;28;20028;-64
2024/03/15 01:37:48;;;;;;;2.05;1.10;;;15.80;71.40;;;;;;5082870;28;20464;-64
2024/03/15 01:40:15;;;;;;;2.13;1.30;;;15.80;71.50;;;;;;5083563;28;20020;-64
2024/03/15 01:42:44;;;;;;;2.45;1.55;;;15.80;71.50;;;;;;5089683;28;20434;-64
2024/03/15 01:45:11;;;;;;;2.55;1.65;;;15.80;71.50;;;;;;5085367;28;20190;-64
2024/03/15 01:47:38;;;;;;;1.58;1.40;;;15.70;71.70;;;;;;5080860;28;20392;-64
2024/03/15 01:50:07;;;;;;;2.55;1.52;;;15.70;72.00;;;;;;5078910;28;20050;-64
2024/03/15 01:52:34;;;;;;;2.85;1.27;;;15.70;72.00;;;;;;5083496;28;20043;-64
2024/03/15 01:55:01;;;;;;;2.53;1.27;;;15.60;72.10;;;;;;5084696;28;20042;-64
2024/03/15 01:57:27;;;;;;;1.80;1.35;;;15.60;72.20;;;;;;5087424;28;20394;-64
2024/03/15 01:59:52;;;;;;;1.23;0.95;;;15.60;72.20;;;;;;5085250;28;20116;-64
2024/03/15 02:02:19;;;;;;;1.73;1.25;;;15.60;72.40;;;;;;5086476;28;20035;-63
2024/03/15 02:04:53;;;;;;;1.55;1.20;;;15.60;72.40;;;;;;5082883;28;20013;-64
2024/03/15 02:07:27;;;;;;;2.55;1.58;;;15.60;72.30;;;;;;5080329;28;20086;-63
2024/03/15 02:09:54;;;;;;;2.90;1.00;;;15.70;72.50;;;;;;5085946;28;20040;-64
2024/03/15 02:12:20;;;;;;;1.80;1.30;;;15.70;72.40;;;;;;5077980;28;20399;-64
2024/03/15 02:14:48;;;;;;;2.05;1.52;;;15.70;72.40;;;;;;5081992;28;20024;-64
2024/03/15 02:17:17;;;;;;;2.30;1.13;;;15.70;72.40;;;;;;5088275;28;20031;-63
2024/03/15 02:19:46;;;;;;;1.50;1.13;;;15.70;72.40;;;;;;5087939;28;20154;-63
2024/03/15 02:22:13;;;;;;;2.58;1.58;;;15.70;72.50;;;;;;5086875;28;21221;-63
2024/03/15 02:24:40;;;;;;;1.58;1.17;;;15.60;72.60;;;;;;5085795;28;20028;-63
2024/03/15 02:27:07;;;;;;;2.22;1.48;;;15.60;72.60;;;;;;5073393;28;20047;-63
2024/03/15 02:29:36;;;;;;;1.45;1.10;;;15.70;72.70;;;;;;5079973;28;20260;-63
2024/03/15 02:32:02;;;;;;;1.20;1.10;;;15.70;72.70;;;;;;5086578;28;20512;-63
2024/03/15 02:34:28;;;;;;;2.33;1.42;;;15.70;72.60;;;;;;5082702;28;20067;-63
2024/03/15 02:36:56;;;;;;;3.15;1.20;;;15.70;72.60;;;;;;5088554;28;20495;-63
2024/03/15 02:39:24;;;;;;;1.55;1.10;;;15.70;72.70;;;;;;5087359;28;20028;-63
2024/03/15 02:41:50;;;;;;;2.63;1.17;;;15.70;72.80;;;;;;5082957;28;20021;-63
2024/03/15 02:44:16;;;;;;;2.58;1.52;;;15.70;72.80;;;;;;5085341;28;20024;-63
2024/03/15 02:46:42;;;;;;;4.78;2.05;;;15.70;72.80;;;;;;5083533;28;20089;-63
2024/03/15 02:49:08;;;;;;;2.53;1.40;;;15.70;72.70;;;;;;5077637;28;20027;-64
2024/03/15 02:51:35;;;;;;;1.73;1.20;;;15.70;72.80;;;;;;5073079;28;20028;-64
2024/03/15 02:54:01;;;;;;;2.40;2.00;;;15.70;72.80;;;;;;5081619;28;20485;-64
2024/03/15 02:56:27;;;;;;;1.95;1.27;;;15.70;73.50;;;;;;5087338;28;20073;-64
2024/03/15 02:58:53;;;;;;;2.35;1.02;;;15.70;72.80;;;;;;5086083;28;20036;-63
2024/03/15 03:01:19;;;;;;;3.85;1.40;;;15.70;72.80;;;;;;5082223;28;20067;-63
2024/03/15 03:03:45;;;;;;;1.42;1.00;;;15.70;72.70;;;;;;5080170;28;20475;-64
2024/03/15 03:06:11;;;;;;;2.30;1.02;;;15.70;72.80;;;;;;5084645;28;20085;-64
2024/03/15 03:08:38;;;;;;;3.50;1.55;;;15.70;72.90;;;;;;5081648;28;20040;-64
2024/03/15 03:11:07;;;;;;;2.20;1.20;;;15.70;72.90;;;;;;5086529;28;20040;-64
2024/03/15 03:13:36;;;;;;;4.35;1.40;;;15.70;73.00;;;;;;5084721;28;20059;-64
2024/03/15 03:16:02;;;;;;;2.50;1.50;;;15.60;73.10;;;;;;5078152;28;20776;-64
2024/03/15 03:18:28;;;;;;;2.05;1.70;;;15.60;73.20;;;;;;5083707;28;20052;-64
2024/03/15 03:20:57;;;;;;;2.25;1.10;;;15.60;73.20;;;;;;5077933;28;20141;-64
2024/03/15 03:23:23;;;;;;;1.40;1.27;;;15.60;73.20;;;;;;5087386;28;20028;-64
2024/03/15 03:25:51;;;;;;;2.58;0.90;;;15.60;73.20;;;;;;5082478;28;20040;-64
2024/03/15 03:28:18;;;;;;;4.55;1.63;;;15.60;73.20;;;;;;5089103;28;20032;-64
2024/03/15 03:30:45;;;;;;;1.80;1.50;;;15.60;73.10;;;;;;5083915;28;20040;-64
2024/03/15 03:33:10;;;;;;;2.80;1.40;;;15.60;73.10;;;;;;5082832;28;20479;-64
2024/03/15 03:35:39;;;;;;;2.95;1.50;;;15.60;73.20;;;;;;5088490;28;20035;-64
2024/03/15 03:38:06;;;;;;;1.92;1.55;;;15.60;73.30;;;;;;5088700;28;20059;-63
2024/03/15 03:40:33;;;;;;;2.08;1.13;;;15.60;73.30;;;;;;5087534;28;20032;-64
2024/03/15 03:43:01;;;;;;;2.90;1.45;;;15.60;73.30;;;;;;5089591;28;20146;-64
2024/03/15 03:45:27;;;;;;;5.85;1.88;;;15.60;73.20;;;;;;5086359;28;20032;-64
2024/03/15 03:47:55;;;;;;;2.60;1.45;;;15.60;73.20;;;;;;5088304;28;20111;-64
2024/03/15 03:50:21;;;;;;;1.50;1.20;;;15.60;73.30;;;;;;5084950;28;20035;-64
2024/03/15 03:52:48;;;;;;;2.70;1.17;;;15.60;73.30;;;;;;5084476;28;20032;-64
2024/03/15 03:55:14;;;;;;;1.83;1.55;;;15.60;73.30;;;;;;5089227;28;20036;-64
2024/03/15 03:57:41;;;;;;;2.35;1.17;;;15.70;73.30;;;;;;5089246;28;20141;-64
2024/03/15 04:00:17;;;;;;;3.10;1.60;;;15.60;73.30;;;;;;5088526;28;20359;-64
2024/03/15 04:02:44;;;;;;;1.90;1.20;;;15.60;73.40;;;;;;5083973;28;20028;-64
2024/03/15 04:05:13;;;;;;;1.35;1.00;;;15.60;73.50;;;;;;5088631;28;20161;-64
2024/03/15 04:07:39;;;;;;;2.75;2.20;;;15.60;73.60;;;;;;5087408;28;20034;-65
2024/03/15 04:10:05;;;;;;;4.93;1.90;;;15.50;74.00;;;;;;5087870;28;20024;-65
2024/03/15 04:12:31;;;;;;;2.25;1.60;;;15.40;74.60;;;;;;5087561;28;20024;-65
2024/03/15 04:14:59;;;;;;;2.63;1.60;;;15.40;75.40;;;;;;5086245;28;20467;-65
2024/03/15 04:17:28;;;;;;;3.10;2.05;;;15.20;75.60;;;;;;5084511;28;20050;-65
2024/03/15 04:19:55;;;;;;;2.85;1.58;;;15.10;76.50;;;;;;5084289;28;20031;-65
2024/03/15 04:22:21;;;;;;;2.92;1.58;;;15.00;77.30;;;;;;5090279;28;20032;-65
2024/03/15 04:24:49;;;;;;;2.03;1.58;;;14.90;78.60;;;;;;5075659;28;20078;-65
2024/03/15 04:27:16;;;;;;;4.35;1.73;;;14.90;78.80;;;;;;5085445;28;20126;-64
2024/03/15 04:29:42;;;;;;;2.65;1.67;;;14.80;79.00;;;;;;5082979;28;20028;-64
2024/03/15 04:32:09;;;;;;;5.13;1.48;;;14.70;79.20;;;;;;5083682;28;20127;-64
2024/03/15 04:34:38;;;;;;;3.63;1.27;;;14.80;79.30;;;;;;5091677;28;20024;-64
2024/03/15 04:37:10;;;;;;;2.53;1.75;;;14.80;79.30;;;;;;5089845;28;20020;-64
2024/03/15 04:39:36;;;;;;;2.38;1.33;;;14.70;79.30;;;;;;5082020;28;20071;-65
2024/03/15 04:42:05;;;;;;;2.67;1.58;;;14.80;79.20;;;;;;5083666;28;20431;-65
2024/03/15 04:44:36;;;;;;;2.08;1.30;;;14.80;79.40;;;;;;5089567;28;20039;-65
2024/03/15 04:47:06;;;;;;;3.55;1.35;;;14.70;79.40;;;;;;5089482;28;20048;-65
2024/03/15 04:49:33;;;;;;;3.20;1.83;;;14.80;79.40;;;;;;5087213;28;20040;-64
2024/03/15 04:51:59;;;;;;;1.88;1.10;;;14.80;79.30;;;;;;5086421;28;20033;-64
2024/03/15 04:54:25;;;;;;;2.60;1.30;;;14.80;79.10;;;;;;5083260;28;20038;-64
2024/03/15 04:56:51;;;;;;;2.30;1.50;;;14.80;79.10;;;;;;5086108;28;20020;-64
2024/03/15 04:59:17;;;;;;;2.92;1.38;;;14.80;79.10;;;;;;5083408;28;20035;-64
2024/03/15 05:01:43;;;;;;;1.83;1.50;;;14.80;79.10;;;;;;5084890;28;20107;-64
2024/03/15 05:04:09;;;;;;;3.58;1.48;;;14.90;79.30;;;;;;5081313;28;20467;-64
2024/03/15 05:06:36;;;;;;;3.13;1.80;;;14.90;79.40;;;;;;5078669;28;20031;-64
2024/03/15 05:09:02;;;;;;;2.85;1.83;;;14.90;79.40;;;;;;5083130;28;20089;-64
2024/03/15 05:11:28;;;;;;;1.60;0.93;;;14.90;79.50;;;;;;5084618;28;20050;-64
2024/03/15 05:13:54;;;;;;;1.98;1.25;;;14.90;79.50;;;;;;5083385;28;20040;-64
2024/03/15 05:16:20;;;;;;;1.83;1.33;;;14.90;79.50;;;;;;5084562;28;20534;-64
2024/03/15 05:18:46;;;;;;;2.05;1.52;;;14.90;79.50;;;;;;5075131;28;20044;-64
2024/03/15 05:21:12;;;;;;;2.50;1.30;;;14.90;79.50;;;;;;5087669;28;20023;-64
2024/03/15 05:23:38;;;;;;;2.10;1.40;;;15.00;79.50;;;;;;5088436;28;20364;-64
2024/03/15 05:26:07;;;;;;;3.28;1.10;;;15.00;79.60;;;;;;5090025;28;20024;-64
2024/03/15 05:28:33;;;;;;;1.95;1.40;;;15.00;79.70;;;;;;5090425;28;20417;-64
2024/03/15 05:31:03;;;;;;;1.55;1.10;;;14.90;79.70;;;;;;5084882;28;20052;-64
2024/03/15 05:33:34;;;;;;;2.33;1.52;;;14.90;79.80;;;;;;5088551;28;20127;-64
2024/03/15 05:36:03;;;;;;;3.10;2.00;;;15.00;79.80;;;;;;5085350;28;20554;-64
2024/03/15 05:38:31;;;;;;;5.50;2.00;;;14.90;79.80;;;;;;5088951;28;20680;-64
2024/03/15 05:41:00;;;;;;;3.85;1.23;;;14.90;79.90;;;;;;5086403;28;20062;-64
2024/03/15 05:43:26;;;;;;;2.65;1.38;;;14.90;80.00;;;;;;5079125;28;20039;-64
2024/03/15 05:45:52;;;;;;;3.75;1.38;;;14.90;80.00;;;;;;5083326;28;20028;-64
2024/03/15 05:48:17;;;;;;;2.42;1.00;;;14.90;80.20;;;;;;5085057;28;20031;-64
2024/03/15 05:50:43;;;;;;;2.35;1.25;;;14.80;80.20;;;;;;5083952;28;20028;-64
2024/03/15 05:53:09;;;;;;;3.75;1.58;;;14.80;80.20;;;;;;5078068;28;20016;-64
2024/03/15 05:55:35;;;;;;;2.50;1.45;;;14.80;80.20;;;;;;5086790;28;20032;-64
2024/03/15 05:58:01;;;;;;;1.58;1.20;;;14.80;80.40;;;;;;5087982;28;20103;-64
2024/03/15 06:00:27;;;;;;;3.15;1.65;;;14.80;80.40;;;;;;5084101;28;20047;-64
2024/03/15 06:02:53;;;;;;;1.23;0.90;;;14.80;80.30;;;;;;5083124;28;20031;-64
2024/03/15 06:05:19;;;;;;;2.30;1.25;;;14.80;80.30;;;;;;5081462;28;20475;-64
2024/03/15 06:07:45;;;;;;;4.25;1.70;;;14.90;80.20;;;;;;5085267;28;20036;-64
2024/03/15 06:10:13;;;;;;;2.22;1.13;;;14.90;80.20;;;;;;5085686;28;20032;-64
2024/03/15 06:12:39;;;;;;;4.63;2.10;;;14.90;80.30;;;;;;5089417;28;20042;-64
2024/03/15 06:15:07;;;;;;;7.40;2.25;;;14.90;80.30;;;;;;5081612;28;20029;-64
2024/03/15 06:17:33;;;;;;;2.05;1.20;;;14.90;80.50;;;;;;5079621;28;20044;-64
2024/03/15 06:19:58;;;;;;;1.77;1.17;;;14.80;80.60;;;;;;5085825;28;20044;-64
2024/03/15 06:22:25;;;;;;;5.28;1.70;;;14.80;80.70;;;;;;5081640;28;20043;-64
2024/03/15 06:24:59;;;;;;;2.75;1.67;;;14.80;80.70;;;;;;5079395;28;20549;-64
2024/03/15 06:27:24;;;;;;;2.22;1.30;;;14.80;80.70;;;;;;5074066;28;20524;-65
2024/03/15 06:29:52;;;;;;;6.70;1.30;;;14.80;80.70;;;;;;5086373;28;20118;-65
2024/03/15 06:32:20;;;;;;;1.50;1.00;;;14.80;80.70;;;;;;5078592;28;20113;-65
2024/03/15 06:34:46;;;;;;;3.15;1.42;;;14.80;80.60;;;;;;5083913;28;20118;-65
2024/03/15 06:37:17;;;;;;;2.40;1.70;;;14.90;80.60;;;;;;5074366;28;20020;-65
2024/03/15 06:42:24;;;;;;;1.77;1.55;;;14.90;80.70;;;;;;5084975;28;20036;-64
2024/03/15 06:45:01;;;;;;;2.50;1.75;;;14.90;80.80;;;;;;5085356;28;20387;-64
2024/03/15 06:47:37;;;;;;;3.47;1.50;;;14.90;80.80;;;;;;5087644;28;20056;-65
2024/03/15 06:50:30;;;;;;;2.08;1.30;;;14.90;80.80;;;;;;5082086;28;20386;-65
2024/03/15 06:52:54;;;;;;;3.47;1.67;;;14.90;80.70;;;;;;5078365;28;20406;-65
2024/03/15 06:55:20;;;;;;;2.72;1.27;;;14.90;80.60;;;;;;5081071;28;20040;-65
2024/03/15 06:57:48;;;;;;;1.30;1.20;;;14.90;80.60;;;;;;5077878;28;20085;-64
2024/03/15 07:00:14;;;;;;;1.60;1.27;;;15.00;80.60;;;;;;5079696;28;20491;-65
2024/03/15 07:02:43;;;;;;;2.30;1.45;;;15.00;80.60;;;;;;5088296;28;20166;-65
2024/03/15 07:05:13;;;;;;;2.28;1.52;;;15.00;80.70;;;;;;5082556;28;20031;-64
2024/03/15 07:07:40;;;;;;;1.92;1.38;;;15.00;80.70;;;;;;5082014;28;20339;-65
2024/03/15 07:10:06;;;;;;;4.70;1.55;;;15.00;80.70;;;;;;5087297;28;20485;-65
2024/03/15 07:12:32;;;;;;;3.13;2.22;;;15.00;80.60;;;;;;5084248;28;20123;-65
2024/03/15 07:14:58;;;;;;;1.35;1.05;;;15.00;80.70;;;;;;5085598;28;20161;-65
2024/03/15 07:17:24;;;;;;;3.00;0.90;;;15.10;80.70;;;;;;5083144;28;20531;-65
2024/03/15 07:19:50;;;;;;;2.58;1.48;;;15.10;80.50;;;;;;5087284;28;20359;-65
2024/03/15 07:22:17;;;;;;;2.20;1.70;;;15.10;80.50;;;;;;5084290;28;20368;-65
2024/03/15 07:24:51;;;;;;;3.15;1.30;;;15.20;80.60;;;;;;5079783;28;20035;-64
2024/03/15 07:27:17;;;;;;;2.03;1.30;;;15.20;80.50;;;;;;5067073;28;20028;-65
2024/03/15 07:29:43;;;;;;;2.33;1.45;;;15.20;80.40;;;;;;5084624;28;20035;-65
2024/03/15 07:32:10;;;;;;;2.03;1.38;;;15.30;80.40;;;;;;5079073;28;20029;-65
2024/03/15 07:34:36;;;;;;;1.35;0.98;;;15.30;80.40;;;;;;5086947;28;20134;-65
2024/03/15 07:37:01;;;;;;;3.20;1.30;;;15.30;80.40;;;;;;5084166;28;20039;-65
2024/03/15 07:39:30;;;;;;;2.00;1.30;;;15.30;80.40;;;;;;5081058;28;20036;-65
2024/03/15 07:42:02;;;;;;;1.85;1.50;;;15.30;80.40;;;;;;5087400;28;20025;-65
2024/03/15 07:44:28;;;;;;;1.88;1.33;;;15.30;80.40;;;;;;5084732;28;20036;-65
2024/03/15 07:46:56;;;;;;;3.15;1.23;;;15.40;80.30;;;;;;5084536;28;20422;-65
2024/03/15 07:49:23;;;;;;;1.30;0.90;;;15.40;80.20;;;;;;5076449;28;20059;-65
2024/03/15 07:51:50;;;;;;;2.53;1.20;;;15.40;80.00;;;;;;5086997;28;20036;-65
2024/03/15 07:54:21;;;;;;;1.92;1.40;;;15.50;80.00;;;;;;5082115;28;20032;-64
2024/03/15 07:56:47;;;;;;;2.22;1.40;;;15.50;79.90;;;;;;5083579;28;20052;-64
2024/03/15 07:59:13;;;;;;;1.50;1.15;;;15.50;79.90;;;;;;5079345;28;20034;-64
2024/03/15 08:01:41;;;;;;;1.45;1.10;;;15.50;80.00;;;;;;5079546;28;20024;-64
2024/03/15 08:04:08;;;;;;;2.30;1.08;;;15.50;80.00;;;;;;5079441;28;20033;-64
2024/03/15 08:06:38;;;;;;;1.92;1.17;;;15.50;80.00;;;;;;5076965;28;20032;-64
2024/03/15 08:09:04;;;;;;;2.58;1.25;;;15.60;79.90;;;;;;5077713;28;20043;-64
2024/03/15 08:11:33;;;;;;;2.22;1.10;;;15.60;79.70;;;;;;5079400;28;20040;-64
2024/03/15 08:14:08;;;;;;;2.22;1.40;;;15.60;79.60;;;;;;5091160;28;20471;-64
2024/03/15 08:16:34;;;;;;;1.40;1.00;;;15.70;79.70;;;;;;5089061;28;20039;-64
2024/03/15 08:19:08;;;;;;;1.77;1.38;;;15.70;79.60;;;;;;5081108;28;20052;-64
2024/03/15 08:21:38;;;;;;;4.18;1.35;;;15.70;79.60;;;;;;5085941;28;20032;-64
2024/03/15 08:24:04;;;;;;;1.58;1.05;;;15.70;79.50;;;;;;5089036;28;20410;-64
2024/03/15 08:26:34;;;;;;;3.33;1.45;;;15.70;79.30;;;;;;5083270;28;20456;-64
2024/03/15 08:29:00;;;;;;;2.38;1.30;;;15.70;79.20;;;;;;5085055;28;20024;-65
2024/03/15 08:31:26;;;;;;;2.17;1.45;;;15.70;79.20;;;;;;5081124;28;20025;-65
2024/03/15 08:33:52;;;;;;;3.53;1.33;;;15.70;79.10;;;;;;5080748;28;20486;-65
2024/03/15 08:36:18;;;;;;;3.05;1.20;;;15.70;78.90;;;;;;5087323;28;20034;-65
2024/03/15 08:38:43;;;;;;;1.02;0.90;;;15.70;78.90;;;;;;5085771;28;20118;-65
2024/03/15 08:41:11;;;;;;;4.05;1.52;;;15.80;78.80;;;;;;5086706;28;20866;-65
2024/03/15 08:43:37;;;;;;;2.83;1.10;;;15.80;78.70;;;;;;5082840;28;20031;-64
2024/03/15 08:46:04;;;;;;;1.65;1.38;;;15.80;78.50;;;;;;5079486;28;20876;-64
2024/03/15 08:48:30;;;;;;;3.25;1.50;;;15.80;78.50;;;;;;5079514;28;20370;-63
2024/03/15 08:50:57;;;;;;;2.40;1.30;;;15.80;78.50;;;;;;5088567;28;20046;-63
2024/03/15 08:53:24;;;;;;;1.83;1.40;;;15.80;78.50;;;;;;5089770;28;20078;-66
2024/03/15 08:55:51;;;;;;;2.40;0.90;;;15.80;78.60;;;;;;5086799;28;20032;-68
2024/03/15 08:58:17;;;;;;;3.33;1.33;;;15.80;78.70;;;;;;5085428;28;20028;-67
2024/03/15 09:00:43;;;;;;;1.48;1.02;;;15.70;78.80;;;;;;5082571;28;20444;-66
2024/03/15 09:03:12;;;;;;;3.55;1.40;;;15.70;79.00;;;;;;5084000;28;20378;-67
2024/03/15 09:05:38;;;;;;;3.22;1.35;;;15.60;78.90;;;;;;5072426;28;20070;-66
2024/03/15 09:08:10;;;;;;;1.38;1.25;;;15.60;79.10;;;;;;5082984;28;20427;-68
2024/03/15 09:10:36;;;;;;;3.75;1.25;;;15.60;79.20;;;;;;5076458;28;20421;-67
2024/03/15 09:13:02;;;;;;;3.85;1.70;;;15.60;79.20;;;;;;5085419;28;20032;-66
2024/03/15 09:15:28;;;;;;;2.33;1.20;;;15.60;79.20;;;;;;5078235;28;20024;-63
2024/03/15 09:17:58;;;;;;;2.28;1.30;;;15.60;79.20;;;;;;5082076;28;20044;-63
2024/03/15 09:20:33;;;;;;;1.40;1.30;;;15.50;79.30;;;;;;5087594;28;20119;-64
2024/03/15 09:23:02;;;;;;;1.95;1.40;;;15.50;79.60;;;;;;5081482;28;20104;-66
2024/03/15 09:25:31;;;;;;;2.70;1.23;;;15.40;80.00;;;;;;5083167;28;20032;-65
2024/03/15 09:27:57;;;;;;;3.50;2.03;;;15.40;80.30;;;;;;5078586;28;20116;-65
2024/03/15 09:30:29;;;;;;;2.33;1.63;;;15.40;80.50;;;;;;5079288;28;20058;-66
2024/03/15 09:32:56;;;;;;;2.22;1.75;;;15.40;80.60;;;;;;5083294;28;20024;-65
2024/03/15 09:35:22;;;;;;;1.75;1.65;;;15.30;80.90;;;;;;5084563;28;20561;-68
2024/03/15 09:37:51;;;;;;;1.33;1.17;;;15.30;81.00;;;;;;5087002;28;20032;-66
2024/03/15 09:40:27;;;;;;;1.10;1.00;;;15.40;81.10;;;;;;5071168;28;20116;-64
2024/03/15 09:42:54;;;;;;;5.30;1.85;;;15.40;81.20;;;;;;5081231;28;20029;-65
2024/03/15 09:45:26;;;;;;;2.83;1.58;;;15.40;81.30;;;;;;5081923;28;20478;-65
2024/03/15 09:47:52;;;;;;;2.20;1.30;;;15.40;81.90;;;;;;5078144;28;20029;-68
2024/03/15 09:50:24;;;;;;;2.65;1.52;;;15.50;81.20;;;;;;5087397;28;20020;-66
2024/03/15 09:52:51;;;;;;;;;;;15.50;80.90;;;;;;5083262;28;20035;-65
2024/03/15 09:55:17;;;;;;;2.05;1.35;;;15.60;80.50;;;;;;5079514;28;20358;-67
2024/03/15 09:57:44;;;;;;;3.58;1.30;;;15.70;79.70;;;;;;5081734;28;20506;-67
2024/03/15 10:00:15;;;;;;;2.92;1.02;;;15.90;79.10;;;;;;5074890;28;20027;-62
2024/03/15 10:02:45;;;;;;;1.63;0.90;;;16.00;78.90;;;;;;5077956;28;20376;-64
2024/03/15 10:05:20;;;;;;;2.45;1.52;;;16.20;78.50;;;;;;5083280;28;20452;-65
2024/03/15 10:07:50;;;;;;;0.77;0.70;;;16.50;76.40;;;;;;5081317;28;20016;-65
2024/03/15 10:10:17;;;;;;;15.32;1.70;;;16.70;76.30;;;;;;5079391;28;20029;-65
2024/03/15 10:12:44;;;;;;;7.10;2.55;;;16.90;76.00;;;;;;5072212;28;20558;-65
2024/03/15 10:15:12;;;;;;;1.10;0.95;;;17.10;75.10;;;;;;5076872;28;20084;-65
2024/03/15 10:17:46;;;;;;;3.85;0.65;;;17.40;74.80;;;;;;5073948;28;20501;-65
2024/03/15 10:20:33;;;;;;;1.27;1.17;;;17.70;74.20;;;;;;5076188;28;20395;-65
2024/03/15 10:22:59;;;;;;;2.10;1.65;;;18.00;73.00;;;;;;5077395;28;20012;-65
2024/03/15 10:25:27;;;;;;;1.23;0.70;;;18.00;71.90;;;;;;5078566;28;20569;-65
2024/03/15 10:27:55;;;;;;;3.05;1.10;;;18.00;71.70;;;;;;5074715;28;20442;-65
2024/03/15 10:30:25;;;;;;;3.92;0.80;;;18.00;70.10;;;;;;5079225;28;20086;-65
2024/03/15 10:32:53;;;;;;;3.92;0.80;;;17.90;69.30;;;;;;5075602;28;20487;-65
2024/03/15 10:35:20;;;;;;;0.57;0.50;;;17.70;70.00;;;;;;5075179;28;20393;-65
2024/03/15 10:37:50;;;;;;;3.60;0.80;;;17.70;69.70;;;;;;5073169;28;20028;-65
2024/03/15 10:40:21;;;;;;;2.13;0.70;;;17.60;69.20;;;;;;5078053;28;20062;-65
2024/03/15 10:42:56;;;;;;;1.55;0.60;;;17.50;69.10;;;;;;5075340;28;20053;-65
2024/03/15 10:45:24;;;;;;;1.08;0.75;;;17.50;69.50;;;;;;5078257;28;20024;-65
2024/03/15 10:47:50;;;;;;;2.00;0.80;;;17.50;69.90;;;;;;5076180;28;20047;-65
2024/03/15 10:50:21;;;;;;;4.43;1.10;;;17.50;69.70;;;;;;5083936;28;20478;-65
2024/03/15 10:52:48;;;;;;;2.50;1.23;;;17.50;69.70;;;;;;5080121;28;20055;-65
2024/03/15 10:55:19;;;;;;;6.68;0.80;;;17.50;69.90;;;;;;5081178;28;20036;-64
2024/03/15 10:57:45;;;;;;;4.93;1.20;;;17.70;69.80;;;;;;5080009;28;20028;-67
2024/03/15 11:00:17;;;;;;;1.33;1.10;;;17.80;69.60;;;;;;5078726;28;20035;-65
2024/03/15 11:02:49;;;;;;;0.82;0.77;;;18.00;69.60;;;;;;5081575;28;20050;-64
2024/03/15 11:05:15;;;;;;;;;;;18.10;68.70;;;;;;5082177;28;20575;-65
2024/03/15 11:07:40;;;;;;;0.98;0.85;;;18.10;68.60;;;;;;5085567;28;19908;-65
2024/03/15 11:10:09;;;;;;;7.32;1.35;;;18.20;68.60;;;;;;5084427;28;20110;-65
2024/03/15 11:12:38;;;;;;;1.35;0.80;;;18.30;68.60;;;;;;5081400;28;20027;-64
2024/03/15 11:15:17;;;;;;;1.33;0.95;;;18.50;68.10;;;;;;5081110;28;20348;-63
2024/03/15 11:17:43;;;;;;;3.22;1.27;;;18.30;68.00;;;;;;5078954;28;20592;-64
2024/03/15 11:20:12;;;;;;;1.70;1.20;;;18.10;68.60;;;;;;5080706;28;20115;-65
2024/03/15 11:22:39;;;;;;;1.83;0.93;;;17.90;68.90;;;;;;5075261;28;20029;-65
2024/03/15 11:25:05;;;;;;;4.05;1.90;;;17.80;69.60;;;;;;5078098;28;20048;-65
2024/03/15 11:27:57;;;;;;;1.75;1.13;;;17.60;70.40;;;;;;5082058;28;20028;-64
2024/03/15 11:30:29;;;;;;;2.20;0.98;;;17.40;71.30;;;;;;5081451;28;20405;-62
2024/03/15 11:32:56;;;;;;;1.83;1.02;;;17.20;72.10;;;;;;5083055;28;20047;-65
2024/03/15 11:35:23;;;;;;;3.65;1.15;;;17.10;73.00;;;;;;5076035;28;20043;-65
2024/03/15 11:37:55;;;;;;;1.20;0.90;;;17.00;73.40;;;;;;5077523;28;20386;-64
2024/03/15 11:40:24;;;;;;;1.45;1.30;;;16.90;74.00;;;;;;5078463;28;20150;-64
2024/03/15 11:42:50;;;;;;;0.80;0.80;;;16.90;74.20;;;;;;5083133;28;20039;-64
2024/03/15 11:45:16;;;;;;;1.13;0.85;;;16.90;74.70;;;;;;5078783;28;20046;-65
2024/03/15 11:47:42;;;;;;;1.60;0.95;;;16.90;75.10;;;;;;5080745;28;20098;-65
2024/03/15 11:50:14;;;;;;;1.55;1.08;;;16.80;75.30;;;;;;5076092;28;20032;-64
2024/03/15 11:52:40;;;;;;;;;;;16.80;75.30;;;;;;5080099;28;20602;-65
2024/03/15 11:55:11;;;;;;;1.67;0.88;;;16.80;75.70;;;;;;5080281;28;21339;-65
2024/03/15 11:57:39;;;;;;;2.53;1.25;;;16.70;75.90;;;;;;5080369;28;20024;-65
2024/03/15 12:00:13;;;;;;;3.60;1.15;;;16.60;76.00;;;;;;5082317;28;20067;-65
2024/03/15 12:02:39;;;;;;;1.48;1.30;;;16.60;76.00;;;;;;5078991;28;20526;-65
2024/03/15 12:05:12;;;;;;;5.60;1.33;;;16.50;76.00;;;;;;5084803;28;20508;-65
2024/03/15 12:07:38;;;;;;;5.38;1.38;;;16.40;76.40;;;;;;5080902;28;20060;-65
2024/03/15 12:10:11;;;;;;;4.47;1.15;;;16.30;77.10;;;;;;5084776;28;20032;-65
2024/03/15 12:12:37;;;;;;;1.50;1.30;;;16.20;77.70;;;;;;5054000;28;21359;-65
2024/03/15 12:15:05;;;;;;;3.15;1.42;;;16.00;78.30;;;;;;5075576;28;20033;-65
2024/03/15 12:17:31;;;;;;;2.88;1.65;;;16.00;79.10;;;;;;5085434;28;20635;-64
2024/03/15 12:19:59;;;;;;;2.88;1.50;;;16.00;79.50;;;;;;5069980;28;20052;-66
2024/03/15 12:22:25;;;;;;;2.05;1.77;;;16.00;79.90;;;;;;5083453;28;20032;-65
2024/03/15 12:24:51;;;;;;;2.65;1.30;;;16.00;80.20;;;;;;5081964;28;20063;-65
2024/03/15 12:27:17;;;;;;;2.63;1.00;;;16.20;80.60;;;;;;5080226;28;20017;-66
2024/03/15 12:29:43;;;;;;;1.85;1.23;;;16.60;80.50;;;;;;5076764;28;20051;-66
2024/03/15 12:32:08;;;;;;;1.60;1.30;;;17.10;79.80;;;;;;5078862;28;20054;-65
2024/03/15 12:34:34;;;;;;;1.92;1.08;;;17.60;79.30;;;;;;5078877;28;20036;-66
2024/03/15 12:37:00;;;;;;;1.77;1.20;;;17.70;77.50;;;;;;5081287;28;20085;-66
2024/03/15 12:39:26;;;;;;;2.35;1.00;;;17.70;77.50;;;;;;5077806;28;20115;-67
2024/03/15 12:41:55;;;;;;;2.90;1.20;;;17.80;77.30;;;;;;5080161;28;20025;-63
2024/03/15 12:44:21;;;;;;;1.77;1.10;;;17.80;77.40;;;;;;5083367;28;20028;-62
2024/03/15 12:46:47;;;;;;;0.88;0.57;;;17.90;77.20;;;;;;5072992;28;20428;-63
2024/03/15 12:49:13;;;;;;;2.97;1.10;;;18.20;77.10;;;;;;5072137;28;20032;-64
2024/03/15 12:51:38;;;;;;;2.40;1.00;;;18.50;75.90;;;;;;5080793;28;20082;-63